N211TS EINN-LGSR
Flight info
| Callsign | N211TS |
|---|---|
| Flight time | N/A |
| Altitude | 35000 |
| Route | ABAGU3A ABAGU DCT KRAGY DCT SAWPE Q63 CPT UL9 BIG L607 KONAN UL607 KOK M150 GEBDA Y173 PABLA Z721 UTABA DCT GEDSO DCT OGODI DCT KOREX DCT GLOMY DCT RETRA DCT BITLA UN132 TUXEM UT514 PEXAN |
| Aircraft | A320/M-SDE3FGHIRWY/LB1 |
Departure
| Time | 2026-05-04 15:38 |
|---|---|
| Airport | Shannon Airport (EINN) |
Arrival
| Time | N/A |
|---|---|
| Airport | Santorini International Airport (LGSR) |
| Time | Latitude | Longitude | Altitude | Speed | Heading |
|---|---|---|---|---|---|
| 2026-05-04 15:24 | 52.69378 | -8.92281 | 22 ft | 0 kts | 185° |
| 2026-05-04 15:30 | 52.69408 | -8.92276 | 22 ft | 4 kts | 185° |
| 2026-05-04 15:31 | 52.69462 | -8.92267 | 24 ft | 4 kts | 191° |
| 2026-05-04 15:31 | 52.69488 | -8.92256 | 24 ft | 4 kts | 206° |
| 2026-05-04 15:32 | 52.69506 | -8.92223 | 25 ft | 0 kts | 294° |
| 2026-05-04 15:34 | 52.69566 | -8.92387 | 22 ft | 12 kts | 314° |
| 2026-05-04 15:34 | 52.69632 | -8.92492 | 22 ft | 15 kts | 316° |
| 2026-05-04 15:34 | 52.69794 | -8.92757 | 23 ft | 18 kts | 315° |
| 2026-05-04 15:35 | 52.69932 | -8.93009 | 39 ft | 12 kts | 281° |
| 2026-05-04 15:35 | 52.69894 | -8.93134 | 39 ft | 15 kts | 233° |
| 2026-05-04 15:35 | 52.69813 | -8.93307 | 41 ft | 22 kts | 231° |
| 2026-05-04 15:36 | 52.69599 | -8.93763 | 41 ft | 28 kts | 232° |
| 2026-05-04 15:36 | 52.69484 | -8.94008 | 47 ft | 27 kts | 232° |
| 2026-05-04 15:36 | 52.69380 | -8.94197 | 49 ft | 17 kts | 208° |
| 2026-05-04 15:37 | 52.69312 | -8.94282 | 46 ft | 8 kts | 269° |
| 2026-05-04 15:37 | 52.69345 | -8.94303 | 49 ft | 6 kts | 27° |
| 2026-05-04 15:37 | 52.69374 | -8.94242 | 50 ft | 8 kts | 53° |
| 2026-05-04 15:37 | 52.69525 | -8.93923 | 46 ft | 70 kts | 52° |
| 2026-05-04 15:38 | 52.69946 | -8.93031 | 40 ft | 126 kts | 52° |
| 2026-05-04 15:38 | 52.70575 | -8.91697 | 32 ft | 167 kts | 51° |
| 2026-05-04 15:38 | 52.71254 | -8.90156 | 600 ft | 166 kts | 51° |
| 2026-05-04 15:38 | 52.71884 | -8.88448 | 1077 ft | 179 kts | 69° |
| 2026-05-04 15:39 | 52.71843 | -8.86401 | 1551 ft | 183 kts | 102° |
| 2026-05-04 15:39 | 52.71437 | -8.84387 | 2027 ft | 188 kts | 107° |
| 2026-05-04 15:39 | 52.70529 | -8.80273 | 2953 ft | 194 kts | 107° |
| 2026-05-04 15:40 | 52.70098 | -8.78156 | 3428 ft | 200 kts | 106° |
| 2026-05-04 15:40 | 52.69669 | -8.75938 | 3898 ft | 205 kts | 105° |
| 2026-05-04 15:40 | 52.69250 | -8.73670 | 4318 ft | 212 kts | 105° |
| 2026-05-04 15:40 | 52.68814 | -8.71234 | 4559 ft | 229 kts | 105° |
| 2026-05-04 15:41 | 52.68346 | -8.68584 | 4773 ft | 253 kts | 105° |
| 2026-05-04 15:41 | 52.67844 | -8.65701 | 5282 ft | 267 kts | 105° |
| 2026-05-04 15:41 | 52.67334 | -8.62732 | 6011 ft | 271 kts | 105° |
| 2026-05-04 15:41 | 52.66821 | -8.59719 | 6755 ft | 275 kts | 105° |
| 2026-05-04 15:42 | 52.66314 | -8.56710 | 7474 ft | 278 kts | 104° |
| 2026-05-04 15:42 | 52.65795 | -8.53628 | 8213 ft | 281 kts | 105° |
| 2026-05-04 15:42 | 52.65265 | -8.50511 | 8929 ft | 285 kts | 104° |
| 2026-05-04 15:42 | 52.64726 | -8.47354 | 9646 ft | 288 kts | 104° |
| 2026-05-04 15:43 | 52.64180 | -8.44156 | 10245 ft | 295 kts | 104° |
| 2026-05-04 15:43 | 52.63606 | -8.40781 | 10378 ft | 317 kts | 104° |
| 2026-05-04 15:43 | 52.62994 | -8.37173 | 10507 ft | 338 kts | 104° |
| 2026-05-04 15:43 | 52.62343 | -8.33336 | 10631 ft | 358 kts | 104° |
| 2026-05-04 15:44 | 52.61653 | -8.29301 | 10846 ft | 373 kts | 104° |
| 2026-05-04 15:44 | 52.60952 | -8.25222 | 11315 ft | 378 kts | 105° |
| 2026-05-04 15:44 | 52.60230 | -8.21051 | 11845 ft | 380 kts | 104° |
| 2026-05-04 15:44 | 52.59503 | -8.16846 | 12404 ft | 383 kts | 104° |
| 2026-05-04 15:45 | 52.58772 | -8.12619 | 12961 ft | 385 kts | 104° |
| 2026-05-04 15:45 | 52.58032 | -8.08367 | 13527 ft | 388 kts | 105° |
| 2026-05-04 15:45 | 52.57284 | -8.04096 | 14058 ft | 391 kts | 104° |
| 2026-05-04 15:45 | 52.56531 | -7.99790 | 14553 ft | 393 kts | 104° |
| 2026-05-04 15:46 | 52.55774 | -7.95466 | 15058 ft | 395 kts | 104° |
| 2026-05-04 15:46 | 52.55023 | -7.91177 | 15511 ft | 397 kts | 105° |
| 2026-05-04 15:46 | 52.54257 | -7.86800 | 15975 ft | 400 kts | 104° |
| 2026-05-04 15:46 | 52.53483 | -7.82402 | 16460 ft | 402 kts | 104° |
| 2026-05-04 15:47 | 52.52700 | -7.77982 | 16948 ft | 404 kts | 104° |
| 2026-05-04 15:47 | 52.51908 | -7.73535 | 17412 ft | 407 kts | 105° |
| 2026-05-04 15:47 | 52.51110 | -7.69062 | 17887 ft | 409 kts | 104° |
| 2026-05-04 15:47 | 52.50309 | -7.64572 | 18389 ft | 410 kts | 104° |
| 2026-05-04 15:48 | 52.49586 | -7.60033 | 18835 ft | 412 kts | 101° |
| 2026-05-04 15:48 | 52.48972 | -7.55500 | 19241 ft | 413 kts | 100° |
| 2026-05-04 15:48 | 52.47857 | -7.46232 | 20116 ft | 416 kts | 99° |
| 2026-05-04 15:49 | 52.47295 | -7.41573 | 20561 ft | 417 kts | 99° |
| 2026-05-04 15:49 | 52.46712 | -7.36898 | 20972 ft | 418 kts | 99° |
| 2026-05-04 15:49 | 52.46109 | -7.32233 | 21369 ft | 420 kts | 100° |
| 2026-05-04 15:49 | 52.45486 | -7.27546 | 21750 ft | 421 kts | 100° |
| 2026-05-04 15:50 | 52.44850 | -7.22848 | 22121 ft | 423 kts | 100° |
| 2026-05-04 15:50 | 52.44219 | -7.18197 | 22477 ft | 424 kts | 100° |
| 2026-05-04 15:50 | 52.43579 | -7.13468 | 22835 ft | 426 kts | 100° |
| 2026-05-04 15:50 | 52.42937 | -7.08721 | 23180 ft | 427 kts | 100° |
| 2026-05-04 15:51 | 52.42294 | -7.03957 | 23516 ft | 429 kts | 100° |
| 2026-05-04 15:51 | 52.41647 | -6.99185 | 23899 ft | 428 kts | 99° |
| 2026-05-04 15:51 | 52.41000 | -6.94435 | 24332 ft | 426 kts | 99° |
| 2026-05-04 15:51 | 52.40357 | -6.89709 | 24758 ft | 424 kts | 99° |
| 2026-05-04 15:52 | 52.39714 | -6.85008 | 25210 ft | 422 kts | 99° |
| 2026-05-04 15:52 | 52.39074 | -6.80337 | 25645 ft | 421 kts | 99° |
| 2026-05-04 15:52 | 52.38434 | -6.75675 | 26085 ft | 419 kts | 99° |
| 2026-05-04 15:52 | 52.37801 | -6.71095 | 26527 ft | 417 kts | 99° |
| 2026-05-04 15:53 | 52.37158 | -6.66473 | 26976 ft | 416 kts | 99° |
| 2026-05-04 15:53 | 52.36515 | -6.61870 | 27422 ft | 414 kts | 99° |
| 2026-05-04 15:53 | 52.35874 | -6.57285 | 27869 ft | 413 kts | 99° |
| 2026-05-04 15:53 | 52.35236 | -6.52718 | 28324 ft | 411 kts | 99° |
| 2026-05-04 15:54 | 52.34598 | -6.48170 | 28811 ft | 409 kts | 98° |
| 2026-05-04 15:54 | 52.33962 | -6.43650 | 29351 ft | 406 kts | 98° |
| 2026-05-04 15:54 | 52.33330 | -6.39171 | 29876 ft | 403 kts | 98° |
| 2026-05-04 15:54 | 52.32710 | -6.34782 | 30306 ft | 401 kts | 98° |
| 2026-05-04 15:55 | 52.32083 | -6.30356 | 30695 ft | 399 kts | 98° |
| 2026-05-04 15:55 | 52.31456 | -6.25942 | 31058 ft | 398 kts | 98° |
| 2026-05-04 15:55 | 52.30828 | -6.21537 | 31416 ft | 398 kts | 98° |
| 2026-05-04 15:55 | 52.30201 | -6.17150 | 31775 ft | 397 kts | 99° |
| 2026-05-04 15:56 | 52.29572 | -6.12762 | 32135 ft | 396 kts | 99° |
| 2026-05-04 15:56 | 52.28943 | -6.08383 | 32501 ft | 396 kts | 99° |
| 2026-05-04 15:56 | 52.28315 | -6.04015 | 32863 ft | 395 kts | 99° |
| 2026-05-04 15:56 | 52.27684 | -5.99655 | 33222 ft | 394 kts | 99° |
| 2026-05-04 15:57 | 52.27058 | -5.95363 | 33568 ft | 394 kts | 100° |
| 2026-05-04 15:57 | 52.26424 | -5.91020 | 33907 ft | 393 kts | 100° |
| 2026-05-04 15:57 | 52.25789 | -5.86676 | 34169 ft | 394 kts | 101° |
| 2026-05-04 15:57 | 52.25152 | -5.82327 | 34386 ft | 394 kts | 101° |
| 2026-05-04 15:58 | 52.24515 | -5.77966 | 34584 ft | 396 kts | 101° |
| 2026-05-04 15:58 | 52.23874 | -5.73592 | 34770 ft | 397 kts | 101° |
| 2026-05-04 15:58 | 52.23227 | -5.69204 | 34955 ft | 398 kts | 101° |
| 2026-05-04 15:58 | 52.22574 | -5.64797 | 35041 ft | 402 kts | 101° |
| 2026-05-04 15:59 | 52.21249 | -5.55876 | 35055 ft | 413 kts | 101° |
| 2026-05-04 15:59 | 52.19869 | -5.46669 | 35053 ft | 422 kts | 101° |
| 2026-05-04 16:00 | 52.18464 | -5.37365 | 35054 ft | 423 kts | 101° |
| 2026-05-04 16:00 | 52.17050 | -5.28057 | 35048 ft | 423 kts | 101° |
| 2026-05-04 16:01 | 52.15628 | -5.18717 | 35039 ft | 427 kts | 102° |
| 2026-05-04 16:01 | 52.14203 | -5.09375 | 35038 ft | 428 kts | 102° |
| 2026-05-04 16:02 | 52.12756 | -4.99964 | 35039 ft | 429 kts | 102° |
| 2026-05-04 16:03 | 52.10610 | -4.85830 | 35035 ft | 429 kts | 102° |
| 2026-05-04 16:03 | 52.09234 | -4.76383 | 35030 ft | 430 kts | 102° |
| 2026-05-04 16:04 | 52.07845 | -4.66983 | 35026 ft | 431 kts | 102° |
| 2026-05-04 16:04 | 52.05720 | -4.52791 | 35029 ft | 431 kts | 102° |
| 2026-05-04 16:05 | 52.04286 | -4.43335 | 35028 ft | 431 kts | 102° |
| 2026-05-04 16:06 | 52.02132 | -4.29194 | 35019 ft | 432 kts | 103° |
| 2026-05-04 16:07 | 51.99219 | -4.10253 | 35010 ft | 433 kts | 103° |
| 2026-05-04 16:08 | 51.96283 | -3.91349 | 35008 ft | 435 kts | 104° |
| 2026-05-04 16:09 | 51.92514 | -3.67503 | 35005 ft | 439 kts | 104° |
| 2026-05-04 16:10 | 51.89473 | -3.48442 | 35017 ft | 439 kts | 104° |
| 2026-05-04 16:11 | 51.86386 | -3.29307 | 35032 ft | 440 kts | 105° |
| 2026-05-04 16:12 | 51.81694 | -3.00683 | 35060 ft | 440 kts | 105° |
| 2026-05-04 16:13 | 51.78520 | -2.81569 | 35062 ft | 440 kts | 105° |
| 2026-05-04 16:14 | 51.75326 | -2.62539 | 35047 ft | 440 kts | 106° |
| 2026-05-04 16:16 | 51.71277 | -2.38725 | 35029 ft | 440 kts | 106° |
| 2026-05-04 16:17 | 51.67183 | -2.14954 | 35029 ft | 442 kts | 107° |
| 2026-05-04 16:18 | 51.63840 | -1.95867 | 35042 ft | 443 kts | 107° |
| 2026-05-04 16:19 | 51.59643 | -1.72067 | 35035 ft | 444 kts | 107° |
| 2026-05-04 16:20 | 51.54989 | -1.48759 | 35028 ft | 445 kts | 111° |
| 2026-05-04 16:22 | 51.49861 | -1.25335 | 35029 ft | 447 kts | 111° |
| 2026-05-04 16:23 | 51.45957 | -0.95985 | 35028 ft | 449 kts | 103° |
| 2026-05-04 16:25 | 51.42243 | -0.66558 | 35020 ft | 451 kts | 104° |
| 2026-05-04 16:26 | 51.37809 | -0.32206 | 35034 ft | 451 kts | 104° |
| 2026-05-04 16:28 | 51.34591 | -0.07796 | 35032 ft | 451 kts | 104° |
| 2026-05-04 16:29 | 51.30938 | 0.26029 | 34995 ft | 451 kts | 101° |
| 2026-05-04 16:31 | 51.28614 | 0.50690 | 34982 ft | 450 kts | 102° |
| 2026-05-04 16:32 | 51.25681 | 0.80276 | 34990 ft | 451 kts | 102° |
| 2026-05-04 16:33 | 51.23688 | 1.00066 | 34989 ft | 452 kts | 102° |
| 2026-05-04 16:34 | 51.22180 | 1.14853 | 34988 ft | 453 kts | 102° |
| 2026-05-04 16:35 | 51.19078 | 1.44564 | 34987 ft | 453 kts | 103° |
| 2026-05-04 16:36 | 51.17498 | 1.59362 | 34990 ft | 454 kts | 103° |
| 2026-05-04 16:37 | 51.15904 | 1.74234 | 34990 ft | 454 kts | 103° |
| 2026-05-04 16:38 | 51.13739 | 1.93975 | 34985 ft | 454 kts | 103° |
| 2026-05-04 16:39 | 51.12066 | 2.19090 | 34992 ft | 458 kts | 98° |
| 2026-05-04 16:40 | 51.10957 | 2.39207 | 34979 ft | 458 kts | 98° |
| 2026-05-04 16:41 | 51.09198 | 2.64325 | 34991 ft | 453 kts | 109° |
| 2026-05-04 16:42 | 51.05296 | 2.77753 | 34983 ft | 446 kts | 122° |
| 2026-05-04 16:43 | 51.02408 | 2.86404 | 34982 ft | 446 kts | 122° |
| 2026-05-04 16:43 | 50.98047 | 2.99470 | 34995 ft | 447 kts | 122° |
| 2026-05-04 16:45 | 50.89282 | 3.25469 | 34968 ft | 447 kts | 122° |
| 2026-05-04 16:46 | 50.81931 | 3.47094 | 34956 ft | 446 kts | 122° |
| 2026-05-04 16:47 | 50.76031 | 3.64247 | 34967 ft | 445 kts | 123° |
| 2026-05-04 16:48 | 50.70106 | 3.81411 | 34946 ft | 445 kts | 123° |
| 2026-05-04 16:49 | 50.64177 | 3.98444 | 34960 ft | 445 kts | 123° |
| 2026-05-04 16:50 | 50.58214 | 4.15509 | 34965 ft | 444 kts | 123° |
| 2026-05-04 16:51 | 50.53744 | 4.28211 | 34979 ft | 444 kts | 123° |
| 2026-05-04 16:52 | 50.47737 | 4.45173 | 34983 ft | 444 kts | 123° |
| 2026-05-04 16:53 | 50.43213 | 4.57873 | 34984 ft | 444 kts | 123° |
| 2026-05-04 16:54 | 50.37186 | 4.74713 | 34958 ft | 444 kts | 124° |
| 2026-05-04 16:55 | 50.28068 | 4.99957 | 34971 ft | 444 kts | 124° |
| 2026-05-04 16:56 | 50.20440 | 5.20879 | 34972 ft | 444 kts | 125° |
| 2026-05-04 16:57 | 50.15849 | 5.33397 | 34978 ft | 443 kts | 125° |
| 2026-05-04 16:58 | 50.09719 | 5.50004 | 34959 ft | 443 kts | 125° |
| 2026-05-04 17:00 | 50.00438 | 5.74954 | 34976 ft | 444 kts | 126° |
| 2026-05-04 17:01 | 49.92682 | 5.95644 | 34970 ft | 445 kts | 126° |
| 2026-05-04 17:02 | 49.86416 | 6.12214 | 34984 ft | 446 kts | 126° |
| 2026-05-04 17:03 | 49.81987 | 6.24859 | 34983 ft | 449 kts | 123° |
| 2026-05-04 17:03 | 49.77728 | 6.37771 | 34989 ft | 448 kts | 123° |
| 2026-05-04 17:04 | 49.71915 | 6.54694 | 34996 ft | 446 kts | 124° |
| 2026-05-04 17:05 | 49.66105 | 6.71623 | 34983 ft | 446 kts | 124° |
| 2026-05-04 17:06 | 49.61726 | 6.84286 | 34967 ft | 446 kts | 124° |
| 2026-05-04 17:07 | 49.57822 | 6.95522 | 34970 ft | 447 kts | 124° |
| 2026-05-04 17:07 | 49.54407 | 7.05332 | 34978 ft | 447 kts | 124° |
| 2026-05-04 17:08 | 49.49996 | 7.17960 | 34975 ft | 446 kts | 123° |
| 2026-05-04 17:09 | 49.47055 | 7.26313 | 34963 ft | 448 kts | 123° |
| 2026-05-04 17:09 | 49.44080 | 7.34744 | 34959 ft | 449 kts | 123° |
| 2026-05-04 17:10 | 49.36589 | 7.55851 | 34969 ft | 451 kts | 123° |
| 2026-05-04 17:11 | 49.33602 | 7.64234 | 34955 ft | 452 kts | 123° |
| 2026-05-04 17:12 | 49.29054 | 7.76927 | 34960 ft | 454 kts | 123° |
| 2026-05-04 17:13 | 49.21440 | 7.98041 | 34975 ft | 454 kts | 123° |
| 2026-05-04 17:14 | 49.15294 | 8.14931 | 34967 ft | 455 kts | 123° |
| 2026-05-04 17:14 | 49.11749 | 8.22787 | 34973 ft | 445 kts | 139° |
| 2026-05-04 17:15 | 49.09422 | 8.25839 | 34984 ft | 438 kts | 149° |
| 2026-05-04 17:15 | 49.04053 | 8.29748 | 34975 ft | 427 kts | 169° |
| 2026-05-04 17:16 | 48.98229 | 8.31225 | 34983 ft | 424 kts | 175° |
| 2026-05-04 17:17 | 48.86538 | 8.33635 | 34996 ft | 424 kts | 175° |
| 2026-05-04 17:17 | 48.78276 | 8.38377 | 34993 ft | 438 kts | 147° |
| 2026-05-04 17:18 | 48.76008 | 8.41507 | 34985 ft | 445 kts | 135° |
| 2026-05-04 17:19 | 48.68667 | 8.56780 | 34977 ft | 449 kts | 130° |
| 2026-05-04 17:20 | 48.61351 | 8.72104 | 34959 ft | 450 kts | 130° |
| 2026-05-04 17:20 | 48.55878 | 8.83543 | 34973 ft | 450 kts | 130° |
| 2026-05-04 17:21 | 48.48540 | 8.98819 | 34981 ft | 450 kts | 130° |
| 2026-05-04 17:22 | 48.44882 | 9.06386 | 34977 ft | 450 kts | 130° |
| 2026-05-04 17:23 | 48.37506 | 9.21591 | 34972 ft | 450 kts | 130° |
| 2026-05-04 17:24 | 48.31958 | 9.32979 | 34970 ft | 450 kts | 130° |
| 2026-05-04 17:25 | 48.24565 | 9.48084 | 34946 ft | 451 kts | 129° |
| 2026-05-04 17:26 | 48.17360 | 9.63538 | 34936 ft | 453 kts | 128° |